Terminal Aerodrome Forecast
Issued by NWS

Home | Current Version | Previous Version | Text Only | Print | Product List | Glossary On
Versions: 1 2 3 4 5 6 7 8 9 10 11 12 13 14 15
000
FTUS45 KTFX 030500 RRA
TAFBZN
TAF
KBZN 030541Z 0306/0406 34014G21KT 5SM -SN BLSN SCT010 BKN020
      TEMPO 0306/0308 1 1/2SM -SN BLSN BKN010
     FM030800 32008KT P6SM VCSH SCT025 BKN045
     FM031200 30007KT P6SM BKN060
     FM031700 30007KT P6SM BKN090
     FM040200 VRB04KT P6SM BKN120=

USA.gov is the U.S. government's official web portal to all federal, state and local government web resources and services.